sensor_id;sensor_type;location;lat;lon;timestamp;pressure;altitude;pressure_sealevel;temperature;humidity
3664;BME280;1848;51.042;7.066;2022-11-04T00:00:02;53346.66;;;-147.17;83.04
3664;BME280;1848;51.042;7.066;2022-11-04T00:02:29;53383.13;;;-147.17;82.90
3664;BME280;1848;51.042;7.066;2022-11-04T00:04:56;53346.66;;;-147.17;83.45
3664;BME280;1848;51.042;7.066;2022-11-04T00:07:22;53346.66;;;-147.17;84.07
3664;BME280;1848;51.042;7.066;2022-11-04T00:10:07;53346.66;;;-147.17;83.56
3664;BME280;1848;51.042;7.066;2022-11-04T00:12:33;53348.69;;;-147.17;83.61
3664;BME280;1848;51.042;7.066;2022-11-04T00:15:00;53348.69;;;-147.17;84.03
3664;BME280;1848;51.042;7.066;2022-11-04T00:17:46;53346.66;;;-147.17;82.86
3664;BME280;1848;51.042;7.066;2022-11-04T00:20:12;53348.69;;;-147.17;82.88
3664;BME280;1848;51.042;7.066;2022-11-04T00:22:57;53383.13;;;-147.17;83.32
3664;BME280;1848;51.042;7.066;2022-11-04T00:25:42;53350.72;;;-147.17;82.83
3664;BME280;1848;51.042;7.066;2022-11-04T00:28:27;53348.69;;;-147.17;83.66
3664;BME280;1848;51.042;7.066;2022-11-04T00:31:08;53346.66;;;-147.17;83.31
3664;BME280;1848;51.042;7.066;2022-11-04T00:33:55;53348.69;;;-147.17;82.86
3664;BME280;1848;51.042;7.066;2022-11-04T00:36:23;53348.69;;;-147.17;82.84
3664;BME280;1848;51.042;7.066;2022-11-04T00:38:50;53348.69;;;-147.17;83.36
3664;BME280;1848;51.042;7.066;2022-11-04T00:41:16;53346.66;;;-147.17;82.77
3664;BME280;1848;51.042;7.066;2022-11-04T00:43:53;53348.69;;;-147.17;83.21
3664;BME280;1848;51.042;7.066;2022-11-04T00:46:20;53348.69;;;-147.17;84.55
3664;BME280;1848;51.042;7.066;2022-11-04T00:48:46;53346.66;;;-147.17;83.62
3664;BME280;1848;51.042;7.066;2022-11-04T00:51:13;53348.69;;;-147.17;83.99
3664;BME280;1848;51.042;7.066;2022-11-04T00:53:44;53350.72;;;-147.17;84.66
3664;BME280;1848;51.042;7.066;2022-11-04T00:56:10;53346.66;;;-147.17;83.53
3664;BME280;1848;51.042;7.066;2022-11-04T00:58:37;53348.69;;;-147.17;84.00
3664;BME280;1848;51.042;7.066;2022-11-04T01:01:14;53383.13;;;-147.17;84.41
3664;BME280;1848;51.042;7.066;2022-11-04T01:03:45;53350.72;;;-147.17;84.71
3664;BME280;1848;51.042;7.066;2022-11-04T01:06:12;53383.13;;;-147.17;84.70
3664;BME280;1848;51.042;7.066;2022-11-04T01:08:38;53346.66;;;-147.17;84.82
3664;BME280;1848;51.042;7.066;2022-11-04T01:11:07;53350.72;;;-147.17;84.87
3664;BME280;1848;51.042;7.066;2022-11-04T01:13:34;53346.66;;;-147.17;85.01
3664;BME280;1848;51.042;7.066;2022-11-04T01:16:02;53348.69;;;-147.17;84.98
3664;BME280;1848;51.042;7.066;2022-11-04T01:18:29;53348.69;;;-147.17;84.53
3664;BME280;1848;51.042;7.066;2022-11-04T01:21:00;53381.09;;;-147.17;85.16
3664;BME280;1848;51.042;7.066;2022-11-04T01:23:27;53348.69;;;-147.17;84.56
3664;BME280;1848;51.042;7.066;2022-11-04T01:25:53;53348.69;;;-147.17;84.81
3664;BME280;1848;51.042;7.066;2022-11-04T01:28:20;53383.13;;;-147.17;84.68
3664;BME280;1848;51.042;7.066;2022-11-04T01:30:46;53383.13;;;-147.17;84.37
3664;BME280;1848;51.042;7.066;2022-11-04T01:33:12;53348.69;;;-147.17;85.08
3664;BME280;1848;51.042;7.066;2022-11-04T01:35:38;53346.66;;;-147.17;84.78
3664;BME280;1848;51.042;7.066;2022-11-04T01:38:05;53348.69;;;-147.17;84.68
3664;BME280;1848;51.042;7.066;2022-11-04T01:40:37;53383.13;;;-147.17;84.60
3664;BME280;1848;51.042;7.066;2022-11-04T01:43:11;53348.69;;;-147.17;84.57
3664;BME280;1848;51.042;7.066;2022-11-04T01:45:41;53348.69;;;-147.17;84.92
3664;BME280;1848;51.042;7.066;2022-11-04T01:48:21;53381.09;;;-147.17;84.59
3664;BME280;1848;51.042;7.066;2022-11-04T01:50:51;53348.69;;;-147.17;83.98
3664;BME280;1848;51.042;7.066;2022-11-04T01:53:28;53348.69;;;-147.17;84.14
3664;BME280;1848;51.042;7.066;2022-11-04T01:55:58;53348.69;;;-147.17;83.64
3664;BME280;1848;51.042;7.066;2022-11-04T01:58:28;53383.13;;;-147.17;84.13
3664;BME280;1848;51.042;7.066;2022-11-04T02:00:56;53383.13;;;-147.17;84.83
3664;BME280;1848;51.042;7.066;2022-11-04T02:03:27;53383.13;;;-147.17;84.37
3664;BME280;1848;51.042;7.066;2022-11-04T02:05:55;53346.66;;;-147.17;84.36
3664;BME280;1848;51.042;7.066;2022-11-04T02:08:22;53346.66;;;-147.17;84.54
3664;BME280;1848;51.042;7.066;2022-11-04T02:11:00;53381.09;;;-147.17;84.84
3664;BME280;1848;51.042;7.066;2022-11-04T02:13:28;53381.09;;;-147.17;85.00
3664;BME280;1848;51.042;7.066;2022-11-04T02:25:23;53383.13;;;-147.17;83.35
3664;BME280;1848;51.042;7.066;2022-11-04T02:31:10;53350.72;;;-147.17;82.91
3664;BME280;1848;51.042;7.066;2022-11-04T02:34:03;53346.66;;;-147.17;82.88
3664;BME280;1848;51.042;7.066;2022-11-04T02:36:57;53346.66;;;-147.17;83.21
3664;BME280;1848;51.042;7.066;2022-11-04T02:42:29;53346.66;;;-147.17;83.77
3664;BME280;1848;51.042;7.066;2022-11-04T02:45:15;53346.66;;;-147.17;83.59
3664;BME280;1848;51.042;7.066;2022-11-04T02:47:45;53346.66;;;-147.17;83.66
3664;BME280;1848;51.042;7.066;2022-11-04T02:50:30;53346.66;;;-147.17;83.66
3664;BME280;1848;51.042;7.066;2022-11-04T02:53:02;53346.66;;;-147.17;84.08
3664;BME280;1848;51.042;7.066;2022-11-04T02:55:38;53348.69;;;-147.17;84.73
3664;BME280;1848;51.042;7.066;2022-11-04T02:58:13;53348.69;;;-147.17;84.95
3664;BME280;1848;51.042;7.066;2022-11-04T03:00:42;53348.69;;;-147.17;85.02
3664;BME280;1848;51.042;7.066;2022-11-04T03:03:15;53346.66;;;-147.17;84.90
3664;BME280;1848;51.042;7.066;2022-11-04T03:05:47;53383.13;;;-147.17;85.07
3664;BME280;1848;51.042;7.066;2022-11-04T03:08:20;53350.72;;;-147.17;84.82
3664;BME280;1848;51.042;7.066;2022-11-04T03:10:54;53346.66;;;-147.17;85.16
3664;BME280;1848;51.042;7.066;2022-11-04T03:13:35;53383.13;;;-147.17;86.14
3664;BME280;1848;51.042;7.066;2022-11-04T03:16:13;53346.66;;;-147.17;86.04
3664;BME280;1848;51.042;7.066;2022-11-04T03:19:01;53348.69;;;-147.17;86.14
3664;BME280;1848;51.042;7.066;2022-11-04T03:21:34;53348.69;;;-147.17;86.52
3664;BME280;1848;51.042;7.066;2022-11-04T03:24:03;53346.66;;;-147.17;86.16
3664;BME280;1848;51.042;7.066;2022-11-04T03:26:43;53348.69;;;-147.17;87.16
3664;BME280;1848;51.042;7.066;2022-11-04T03:29:20;53383.13;;;-147.17;87.47
3664;BME280;1848;51.042;7.066;2022-11-04T03:32:06;53383.13;;;-147.17;88.06
3664;BME280;1848;51.042;7.066;2022-11-04T03:34:36;53346.66;;;-147.17;88.00
3664;BME280;1848;51.042;7.066;2022-11-04T03:37:03;53346.66;;;-147.17;88.42
3664;BME280;1848;51.042;7.066;2022-11-04T03:39:30;53346.66;;;-147.17;88.11
3664;BME280;1848;51.042;7.066;2022-11-04T03:41:59;53348.69;;;-147.17;88.70
3664;BME280;1848;51.042;7.066;2022-11-04T03:44:28;53348.69;;;-147.17;89.03
3664;BME280;1848;51.042;7.066;2022-11-04T03:46:54;53346.66;;;-147.17;89.15
3664;BME280;1848;51.042;7.066;2022-11-04T03:49:22;53383.13;;;-147.17;88.95
3664;BME280;1848;51.042;7.066;2022-11-04T03:51:49;53383.13;;;-147.17;89.28
3664;BME280;1848;51.042;7.066;2022-11-04T03:54:17;53383.13;;;-147.17;89.33
3664;BME280;1848;51.042;7.066;2022-11-04T03:59:58;53383.13;;;-147.17;89.41
3664;BME280;1848;51.042;7.066;2022-11-04T04:02:38;53346.66;;;-147.17;89.15
3664;BME280;1848;51.042;7.066;2022-11-04T04:05:21;53383.13;;;-147.17;89.38
3664;BME280;1848;51.042;7.066;2022-11-04T04:07:55;53346.66;;;-147.17;89.46
3664;BME280;1848;51.042;7.066;2022-11-04T04:10:28;53346.66;;;-147.17;88.83
3664;BME280;1848;51.042;7.066;2022-11-04T04:13:13;53383.13;;;-147.17;89.16
3664;BME280;1848;51.042;7.066;2022-11-04T04:15:45;53346.66;;;-147.17;88.58
3664;BME280;1848;51.042;7.066;2022-11-04T04:18:15;53346.66;;;-147.17;89.00
3664;BME280;1848;51.042;7.066;2022-11-04T04:20:45;53346.66;;;-147.17;88.68
3664;BME280;1848;51.042;7.066;2022-11-04T04:23:20;53346.66;;;-147.17;88.72
3664;BME280;1848;51.042;7.066;2022-11-04T04:26:08;53383.13;;;-147.17;88.66
3664;BME280;1848;51.042;7.066;2022-11-04T04:28:55;53346.66;;;-147.17;89.03
3664;BME280;1848;51.042;7.066;2022-11-04T04:31:22;53348.69;;;-147.17;88.73
3664;BME280;1848;51.042;7.066;2022-11-04T04:34:09;53348.69;;;-147.17;88.49
3664;BME280;1848;51.042;7.066;2022-11-04T04:36:43;53350.72;;;-147.17;88.59
3664;BME280;1848;51.042;7.066;2022-11-04T04:39:11;53346.66;;;-147.17;88.84
3664;BME280;1848;51.042;7.066;2022-11-04T04:41:58;53346.66;;;-147.17;89.15
3664;BME280;1848;51.042;7.066;2022-11-04T04:44:43;53383.13;;;-147.17;89.47
3664;BME280;1848;51.042;7.066;2022-11-04T04:47:32;53346.66;;;-147.17;89.38
3664;BME280;1848;51.042;7.066;2022-11-04T04:50:00;53381.09;;;-147.17;89.34
3664;BME280;1848;51.042;7.066;2022-11-04T04:52:33;53348.69;;;-147.17;89.58
3664;BME280;1848;51.042;7.066;2022-11-04T04:55:01;53346.66;;;-147.17;89.28
3664;BME280;1848;51.042;7.066;2022-11-04T04:57:28;53346.66;;;-147.17;89.70
3664;BME280;1848;51.042;7.066;2022-11-04T04:59:54;53348.69;;;-147.17;89.51
3664;BME280;1848;51.042;7.066;2022-11-04T05:02:21;53348.69;;;-147.17;89.93
3664;BME280;1848;51.042;7.066;2022-11-04T05:04:47;53383.13;;;-147.17;89.72
3664;BME280;1848;51.042;7.066;2022-11-04T05:07:14;53346.66;;;-147.17;89.77
3664;BME280;1848;51.042;7.066;2022-11-04T05:09:40;53346.66;;;-147.17;89.96
3664;BME280;1848;51.042;7.066;2022-11-04T05:12:07;53383.13;;;-147.17;89.92
3664;BME280;1848;51.042;7.066;2022-11-04T05:14:33;53348.69;;;-147.17;89.69
3664;BME280;1848;51.042;7.066;2022-11-04T05:16:59;53346.66;;;-147.17;90.05
3664;BME280;1848;51.042;7.066;2022-11-04T05:19:26;53383.13;;;-147.17;90.08
3664;BME280;1848;51.042;7.066;2022-11-04T05:21:52;53346.66;;;-147.17;90.64
3664;BME280;1848;51.042;7.066;2022-11-04T05:24:18;53346.66;;;-147.17;90.08
3664;BME280;1848;51.042;7.066;2022-11-04T05:26:45;53381.09;;;-147.17;90.15
3664;BME280;1848;51.042;7.066;2022-11-04T05:29:11;53346.66;;;-147.17;90.15
3664;BME280;1848;51.042;7.066;2022-11-04T05:31:38;53383.13;;;-147.17;89.49
3664;BME280;1848;51.042;7.066;2022-11-04T05:34:04;53346.66;;;-147.17;89.60
3664;BME280;1848;51.042;7.066;2022-11-04T05:36:31;53383.13;;;-147.17;89.22
3664;BME280;1848;51.042;7.066;2022-11-04T05:39:00;53346.66;;;-147.17;89.70
3664;BME280;1848;51.042;7.066;2022-11-04T05:41:27;53383.13;;;-147.17;89.36
3664;BME280;1848;51.042;7.066;2022-11-04T05:43:55;53346.66;;;-147.17;89.71
3664;BME280;1848;51.042;7.066;2022-11-04T05:46:22;53383.13;;;-147.17;88.83
3664;BME280;1848;51.042;7.066;2022-11-04T05:48:49;53383.13;;;-147.17;88.86
3664;BME280;1848;51.042;7.066;2022-11-04T05:51:20;53346.66;;;-147.17;89.18
3664;BME280;1848;51.042;7.066;2022-11-04T05:53:46;53381.09;;;-147.17;88.85
3664;BME280;1848;51.042;7.066;2022-11-04T05:56:13;53383.13;;;-147.17;89.03
3664;BME280;1848;51.042;7.066;2022-11-04T05:58:39;53344.63;;;-147.17;88.56
3664;BME280;1848;51.042;7.066;2022-11-04T06:01:21;53346.66;;;-147.17;88.84
3664;BME280;1848;51.042;7.066;2022-11-04T06:03:49;53346.66;;;-147.17;89.17
3664;BME280;1848;51.042;7.066;2022-11-04T06:06:15;53383.13;;;-147.17;88.61
3664;BME280;1848;51.042;7.066;2022-11-04T06:08:41;53346.66;;;-147.17;88.63
3664;BME280;1848;51.042;7.066;2022-11-04T06:11:10;53346.66;;;-147.17;88.80
3664;BME280;1848;51.042;7.066;2022-11-04T06:13:37;53346.66;;;-147.17;88.86
3664;BME280;1848;51.042;7.066;2022-11-04T06:16:03;53346.66;;;-147.17;89.40
3664;BME280;1848;51.042;7.066;2022-11-04T06:18:30;53346.66;;;-147.17;89.49
3664;BME280;1848;51.042;7.066;2022-11-04T06:23:47;53346.66;;;-147.17;89.30
3664;BME280;1848;51.042;7.066;2022-11-04T06:26:14;53383.13;;;-147.17;89.24
3664;BME280;1848;51.042;7.066;2022-11-04T06:28:40;53383.13;;;-147.17;89.72
3664;BME280;1848;51.042;7.066;2022-11-04T06:31:08;53348.69;;;-147.17;89.80
3664;BME280;1848;51.042;7.066;2022-11-04T06:33:35;53383.13;;;-147.17;90.02
3664;BME280;1848;51.042;7.066;2022-11-04T06:36:04;53383.13;;;-147.17;89.67
3664;BME280;1848;51.042;7.066;2022-11-04T06:38:32;53383.13;;;-147.17;89.83
3664;BME280;1848;51.042;7.066;2022-11-04T06:40:59;53346.66;;;-147.17;89.87
3664;BME280;1848;51.042;7.066;2022-11-04T06:43:26;53383.13;;;-147.17;89.58
3664;BME280;1848;51.042;7.066;2022-11-04T06:46:01;53346.66;;;-147.17;89.98
3664;BME280;1848;51.042;7.066;2022-11-04T06:48:29;53383.13;;;-147.17;89.70
3664;BME280;1848;51.042;7.066;2022-11-04T06:50:57;53348.69;;;-147.17;89.90
3664;BME280;1848;51.042;7.066;2022-11-04T06:53:25;53383.13;;;-147.17;90.23
3664;BME280;1848;51.042;7.066;2022-11-04T06:55:52;53346.66;;;-147.17;90.38
3664;BME280;1848;51.042;7.066;2022-11-04T06:58:19;53383.13;;;-147.17;90.64
3664;BME280;1848;51.042;7.066;2022-11-04T07:00:51;53346.66;;;-147.17;90.15
3664;BME280;1848;51.042;7.066;2022-11-04T07:03:18;53381.09;;;-147.17;90.64
3664;BME280;1848;51.042;7.066;2022-11-04T07:05:45;53383.13;;;-147.17;90.78
3664;BME280;1848;51.042;7.066;2022-11-04T07:08:11;53383.13;;;-147.17;89.97
3664;BME280;1848;51.042;7.066;2022-11-04T07:10:37;53346.66;;;-147.17;89.94
3664;BME280;1848;51.042;7.066;2022-11-04T07:13:04;53346.66;;;-147.17;90.00
3664;BME280;1848;51.042;7.066;2022-11-04T07:15:30;53381.09;;;-147.17;89.67
3664;BME280;1848;51.042;7.066;2022-11-04T07:17:58;53348.69;;;-147.17;89.63
3664;BME280;1848;51.042;7.066;2022-11-04T07:20:25;53383.13;;;-147.17;89.49
3664;BME280;1848;51.042;7.066;2022-11-04T07:22:53;53383.13;;;-147.17;88.76
3664;BME280;1848;51.042;7.066;2022-11-04T07:25:19;53383.13;;;-147.17;89.29
3664;BME280;1848;51.042;7.066;2022-11-04T07:27:46;53348.69;;;-147.17;89.22
3664;BME280;1848;51.042;7.066;2022-11-04T07:30:12;53383.13;;;-147.17;89.12
3664;BME280;1848;51.042;7.066;2022-11-04T07:32:39;53346.66;;;-147.17;88.72
3664;BME280;1848;51.042;7.066;2022-11-04T07:35:06;53346.66;;;-147.17;88.16
3664;BME280;1848;51.042;7.066;2022-11-04T07:37:32;53383.13;;;-147.17;87.85
3664;BME280;1848;51.042;7.066;2022-11-04T07:39:58;53346.66;;;-147.17;87.98
3664;BME280;1848;51.042;7.066;2022-11-04T07:42:25;53348.69;;;-147.17;88.46
3664;BME280;1848;51.042;7.066;2022-11-04T07:44:51;53383.13;;;-147.17;88.35
3664;BME280;1848;51.042;7.066;2022-11-04T07:47:18;53346.66;;;-147.17;88.20
3664;BME280;1848;51.042;7.066;2022-11-04T07:49:44;53346.66;;;-147.17;87.90
3664;BME280;1848;51.042;7.066;2022-11-04T07:52:10;53346.66;;;-147.17;87.55
3664;BME280;1848;51.042;7.066;2022-11-04T07:54:37;53346.66;;;-147.17;87.50
3664;BME280;1848;51.042;7.066;2022-11-04T07:57:03;53379.06;;;-147.17;87.13
3664;BME280;1848;51.042;7.066;2022-11-04T07:59:29;53383.13;;;-147.17;87.52
3664;BME280;1848;51.042;7.066;2022-11-04T08:01:56;53383.13;;;-147.17;87.71
3664;BME280;1848;51.042;7.066;2022-11-04T08:04:22;53383.13;;;-147.17;88.01
3664;BME280;1848;51.042;7.066;2022-11-04T08:06:49;53346.66;;;-147.17;87.78
3664;BME280;1848;51.042;7.066;2022-11-04T08:09:15;53383.13;;;-147.17;88.45
3664;BME280;1848;51.042;7.066;2022-11-04T08:11:41;53383.13;;;-147.17;89.33
3664;BME280;1848;51.042;7.066;2022-11-04T08:14:08;53346.66;;;-147.17;89.42
3664;BME280;1848;51.042;7.066;2022-11-04T08:16:35;53383.13;;;-147.17;90.30
3664;BME280;1848;51.042;7.066;2022-11-04T08:19:01;53383.13;;;-147.17;90.46
3664;BME280;1848;51.042;7.066;2022-11-04T08:21:29;53350.72;;;-147.17;90.96
3664;BME280;1848;51.042;7.066;2022-11-04T08:23:55;53346.66;;;-147.17;90.78
3664;BME280;1848;51.042;7.066;2022-11-04T08:26:22;53350.72;;;-147.17;91.14
3664;BME280;1848;51.042;7.066;2022-11-04T08:28:50;53346.66;;;-147.17;91.04
3664;BME280;1848;51.042;7.066;2022-11-04T08:31:22;53381.09;;;-147.17;91.23
3664;BME280;1848;51.042;7.066;2022-11-04T08:33:51;53383.13;;;-147.17;91.23
3664;BME280;1848;51.042;7.066;2022-11-04T08:36:30;53346.66;;;-147.17;90.69
3664;BME280;1848;51.042;7.066;2022-11-04T08:38:57;53346.66;;;-147.17;90.58
3664;BME280;1848;51.042;7.066;2022-11-04T08:44:13;53348.69;;;-147.17;90.80
3664;BME280;1848;51.042;7.066;2022-11-04T08:46:41;53348.69;;;-147.17;90.96
3664;BME280;1848;51.042;7.066;2022-11-04T08:49:08;53346.66;;;-147.17;90.59
3664;BME280;1848;51.042;7.066;2022-11-04T08:51:42;53348.69;;;-147.17;90.60
3664;BME280;1848;51.042;7.066;2022-11-04T08:54:09;53383.13;;;-147.17;90.46
3664;BME280;1848;51.042;7.066;2022-11-04T08:56:37;53346.66;;;-147.17;90.44
3664;BME280;1848;51.042;7.066;2022-11-04T08:59:04;53346.66;;;-147.17;90.71
3664;BME280;1848;51.042;7.066;2022-11-04T09:01:33;53383.13;;;-147.17;90.89
3664;BME280;1848;51.042;7.066;2022-11-04T09:04:02;53346.66;;;-147.17;90.55
3664;BME280;1848;51.042;7.066;2022-11-04T09:06:35;53381.09;;;-147.17;89.96
3664;BME280;1848;51.042;7.066;2022-11-04T09:09:07;53383.13;;;-147.17;89.82
3664;BME280;1848;51.042;7.066;2022-11-04T09:11:37;53348.69;;;-147.17;90.05
3664;BME280;1848;51.042;7.066;2022-11-04T09:14:04;53348.69;;;-147.17;90.00
3664;BME280;1848;51.042;7.066;2022-11-04T09:16:32;53346.66;;;-147.17;88.73
3664;BME280;1848;51.042;7.066;2022-11-04T09:18:59;53348.69;;;-147.17;88.29
3664;BME280;1848;51.042;7.066;2022-11-04T09:21:27;53383.13;;;-147.17;87.00
3664;BME280;1848;51.042;7.066;2022-11-04T09:23:54;53346.66;;;-147.17;86.53
3664;BME280;1848;51.042;7.066;2022-11-04T09:26:22;53381.09;;;-147.17;86.99
3664;BME280;1848;51.042;7.066;2022-11-04T09:28:53;53383.13;;;-147.17;86.48
3664;BME280;1848;51.042;7.066;2022-11-04T09:31:21;53348.69;;;-147.17;84.59
3664;BME280;1848;51.042;7.066;2022-11-04T09:33:47;53383.13;;;-147.17;84.54
3664;BME280;1848;51.042;7.066;2022-11-04T09:36:15;53346.66;;;-147.17;85.43
3664;BME280;1848;51.042;7.066;2022-11-04T09:38:42;53383.13;;;-147.17;84.00
3664;BME280;1848;51.042;7.066;2022-11-04T09:46:46;53381.09;;;-147.17;83.13
3664;BME280;1848;51.042;7.066;2022-11-04T09:49:14;53383.13;;;-147.17;84.65
3664;BME280;1848;51.042;7.066;2022-11-04T09:51:42;53348.69;;;-147.17;83.21
3664;BME280;1848;51.042;7.066;2022-11-04T09:54:23;53348.69;;;-147.17;83.45
3664;BME280;1848;51.042;7.066;2022-11-04T09:56:52;53383.13;;;-147.17;81.83
3664;BME280;1848;51.042;7.066;2022-11-04T09:59:26;53348.69;;;-147.17;78.48
3664;BME280;1848;51.042;7.066;2022-11-04T10:08:24;53346.66;;;-147.17;78.71
3664;BME280;1848;51.042;7.066;2022-11-04T10:11:02;53346.66;;;-147.17;78.80
3664;BME280;1848;51.042;7.066;2022-11-04T10:13:48;53348.69;;;-147.17;73.67
3664;BME280;1848;51.042;7.066;2022-11-04T10:16:46;53348.69;;;-147.17;75.78
3664;BME280;1848;51.042;7.066;2022-11-04T10:22:39;53350.72;;;-147.17;75.64
3664;BME280;1848;51.042;7.066;2022-11-04T10:25:13;53348.69;;;-147.17;74.62
3664;BME280;1848;51.042;7.066;2022-11-04T10:27:45;53348.69;;;-147.17;71.69
3664;BME280;1848;51.042;7.066;2022-11-04T10:30:18;53348.69;;;-147.17;71.53
3664;BME280;1848;51.042;7.066;2022-11-04T10:32:57;53350.72;;;-147.17;69.00
3664;BME280;1848;51.042;7.066;2022-11-04T10:35:38;53350.72;;;-147.17;71.64
3664;BME280;1848;51.042;7.066;2022-11-04T10:40:49;53350.72;;;-147.17;69.36
3664;BME280;1848;51.042;7.066;2022-11-04T10:43:25;53350.72;;;-147.17;69.77
3664;BME280;1848;51.042;7.066;2022-11-04T10:46:04;53383.13;;;-147.17;66.49
3664;BME280;1848;51.042;7.066;2022-11-04T10:48:44;53350.72;;;-147.17;65.22
3664;BME280;1848;51.042;7.066;2022-11-04T10:51:14;53352.75;;;-147.17;64.62
3664;BME280;1848;51.042;7.066;2022-11-04T10:53:45;53350.72;;;-147.17;65.87
3664;BME280;1848;51.042;7.066;2022-11-04T10:56:21;53346.66;;;-147.17;65.78
3664;BME280;1848;51.042;7.066;2022-11-04T10:58:52;53350.72;;;-147.17;62.73
3664;BME280;1848;51.042;7.066;2022-11-04T11:01:30;53383.13;;;-147.17;64.21
3664;BME280;1848;51.042;7.066;2022-11-04T11:03:58;53348.69;;;-147.17;63.75
3664;BME280;1848;51.042;7.066;2022-11-04T11:06:32;53383.13;;;-147.17;64.64
3664;BME280;1848;51.042;7.066;2022-11-04T11:09:17;53346.66;;;-147.17;65.50
3664;BME280;1848;51.042;7.066;2022-11-04T11:11:49;53348.69;;;-147.17;64.26
3664;BME280;1848;51.042;7.066;2022-11-04T11:16:55;53346.66;;;-147.17;70.03
3664;BME280;1848;51.042;7.066;2022-11-04T11:19:23;53348.69;;;-147.17;69.22
3664;BME280;1848;51.042;7.066;2022-11-04T11:21:54;53383.13;;;-147.17;70.31
3664;BME280;1848;51.042;7.066;2022-11-04T11:24:22;53348.69;;;-147.17;68.10
3664;BME280;1848;51.042;7.066;2022-11-04T11:26:54;53352.75;;;-147.17;69.45
3664;BME280;1848;51.042;7.066;2022-11-04T11:29:26;53348.69;;;-147.17;69.38
3664;BME280;1848;51.042;7.066;2022-11-04T11:31:55;53348.69;;;-147.17;69.75
3664;BME280;1848;51.042;7.066;2022-11-04T11:34:27;53383.13;;;-147.17;72.79
3664;BME280;1848;51.042;7.066;2022-11-04T11:36:56;53348.69;;;-147.17;72.92
3664;BME280;1848;51.042;7.066;2022-11-04T11:39:27;53348.69;;;-147.17;72.13
3664;BME280;1848;51.042;7.066;2022-11-04T11:42:05;53348.69;;;-147.17;72.77
3664;BME280;1848;51.042;7.066;2022-11-04T11:47:20;53352.75;;;-147.17;69.22
3664;BME280;1848;51.042;7.066;2022-11-04T11:52:31;53348.69;;;-147.17;65.31
3664;BME280;1848;51.042;7.066;2022-11-04T11:55:16;53383.13;;;-147.17;62.97
3664;BME280;1848;51.042;7.066;2022-11-04T12:06:51;53383.13;;;-147.17;63.02
3664;BME280;1848;51.042;7.066;2022-11-04T12:09:53;53348.69;;;-147.17;63.23
3664;BME280;1848;51.042;7.066;2022-11-04T12:12:30;53346.66;;;-147.17;65.23
3664;BME280;1848;51.042;7.066;2022-11-04T12:15:21;53350.72;;;-147.17;66.33
3664;BME280;1848;51.042;7.066;2022-11-04T12:18:07;53383.13;;;-147.17;66.29
3664;BME280;1848;51.042;7.066;2022-11-04T12:20:53;53383.13;;;-147.17;66.87
3664;BME280;1848;51.042;7.066;2022-11-04T12:23:36;53383.13;;;-147.17;68.72
3664;BME280;1848;51.042;7.066;2022-11-04T12:26:13;53350.72;;;-147.17;67.90
3664;BME280;1848;51.042;7.066;2022-11-04T12:28:57;53348.69;;;-147.17;68.45
3664;BME280;1848;51.042;7.066;2022-11-04T12:31:33;53348.69;;;-147.17;70.40
3664;BME280;1848;51.042;7.066;2022-11-04T12:36:51;53346.66;;;-147.17;71.35
3664;BME280;1848;51.042;7.066;2022-11-04T12:47:47;53381.09;;;-147.17;72.69
3664;BME280;1848;51.042;7.066;2022-11-04T12:50:42;53348.69;;;-147.17;72.98
3664;BME280;1848;51.042;7.066;2022-11-04T12:53:46;53381.09;;;-147.17;73.81
3664;BME280;1848;51.042;7.066;2022-11-04T12:56:18;53350.72;;;-147.17;73.87
3664;BME280;1848;51.042;7.066;2022-11-04T12:59:09;53383.13;;;-147.17;73.50
3664;BME280;1848;51.042;7.066;2022-11-04T13:01:48;53348.69;;;-147.17;73.55
3664;BME280;1848;51.042;7.066;2022-11-04T13:04:16;53346.66;;;-147.17;73.15
3664;BME280;1848;51.042;7.066;2022-11-04T13:06:49;53350.72;;;-147.17;73.52
3664;BME280;1848;51.042;7.066;2022-11-04T13:12:22;53348.69;;;-147.17;73.21
3664;BME280;1848;51.042;7.066;2022-11-04T13:14:59;53350.72;;;-147.17;73.21
3664;BME280;1848;51.042;7.066;2022-11-04T13:17:34;53350.72;;;-147.17;73.99
3664;BME280;1848;51.042;7.066;2022-11-04T13:20:38;53346.66;;;-147.17;73.90
3664;BME280;1848;51.042;7.066;2022-11-04T13:23:17;53348.69;;;-147.17;73.21
3664;BME280;1848;51.042;7.066;2022-11-04T13:25:45;53346.66;;;-147.17;73.41
3664;BME280;1848;51.042;7.066;2022-11-04T13:28:16;53348.69;;;-147.17;71.59
3664;BME280;1848;51.042;7.066;2022-11-04T13:30:53;53348.69;;;-147.17;71.17
3664;BME280;1848;51.042;7.066;2022-11-04T13:33:29;53348.69;;;-147.17;71.52
3664;BME280;1848;51.042;7.066;2022-11-04T13:38:35;53350.72;;;-147.17;70.55
3664;BME280;1848;51.042;7.066;2022-11-04T13:43:58;53348.69;;;-147.17;70.25
3664;BME280;1848;51.042;7.066;2022-11-04T13:46:29;53346.66;;;-147.17;70.26
3664;BME280;1848;51.042;7.066;2022-11-04T13:51:42;53346.66;;;-147.17;70.01
3664;BME280;1848;51.042;7.066;2022-11-04T13:54:28;53348.69;;;-147.17;69.32
3664;BME280;1848;51.042;7.066;2022-11-04T13:59:42;53346.66;;;-147.17;70.02
3664;BME280;1848;51.042;7.066;2022-11-04T14:02:40;53346.66;;;-147.17;71.57
3664;BME280;1848;51.042;7.066;2022-11-04T14:16:08;53348.69;;;-147.17;71.42
3664;BME280;1848;51.042;7.066;2022-11-04T14:18:37;53383.13;;;-147.17;72.17
3664;BME280;1848;51.042;7.066;2022-11-04T14:23:43;53350.72;;;-147.17;72.52
3664;BME280;1848;51.042;7.066;2022-11-04T14:26:13;53383.13;;;-147.17;74.87
3664;BME280;1848;51.042;7.066;2022-11-04T14:28:42;53348.69;;;-147.17;76.43
3664;BME280;1848;51.042;7.066;2022-11-04T14:31:12;53348.69;;;-147.17;75.34
3664;BME280;1848;51.042;7.066;2022-11-04T14:33:53;53383.13;;;-147.17;73.21
3664;BME280;1848;51.042;7.066;2022-11-04T14:39:19;53346.66;;;-147.17;73.48
3664;BME280;1848;51.042;7.066;2022-11-04T14:41:51;53381.09;;;-147.17;72.36
3664;BME280;1848;51.042;7.066;2022-11-04T14:44:36;53348.69;;;-147.17;72.79
3664;BME280;1848;51.042;7.066;2022-11-04T14:50:13;53348.69;;;-147.17;73.75
3664;BME280;1848;51.042;7.066;2022-11-04T14:52:46;53381.09;;;-147.17;74.66
3664;BME280;1848;51.042;7.066;2022-11-04T14:55:20;53346.66;;;-147.17;74.45
3664;BME280;1848;51.042;7.066;2022-11-04T14:57:54;53383.13;;;-147.17;74.91
3664;BME280;1848;51.042;7.066;2022-11-04T15:00:27;53346.66;;;-147.17;74.82
3664;BME280;1848;51.042;7.066;2022-11-04T15:02:59;53346.66;;;-147.17;75.73
3664;BME280;1848;51.042;7.066;2022-11-04T15:05:27;53346.66;;;-147.17;75.60
3664;BME280;1848;51.042;7.066;2022-11-04T15:08:48;53348.69;;;-147.17;76.24